Time;durP1;ratioP1;P1;durP2;ratioP2;P2;SDS_P1;SDS_P2;PMS_P1;PMS_P2;Temp;Humidity;BMP_temperature;BMP_pressure;BME280_temperature;BME280_humidity;BME280_pressure;Samples;Min_cycle;Max_cycle;Signal;HPM_P1;HPM_P2
2023/11/15 00:00:10;;;;;;;7.30;2.67;;;12.10;99.90;;;;;;5078201;28;20044;-91
2023/11/15 00:02:40;;;;;;;7.97;2.10;;;12.10;99.90;;;;;;5091105;28;20036;-90
2023/11/15 00:05:08;;;;;;;7.03;2.30;;;12.00;99.90;;;;;;5100205;28;20004;-88
2023/11/15 00:07:37;;;;;;;4.28;2.08;;;12.10;99.90;;;;;;5074975;28;20487;-89
2023/11/15 00:10:06;;;;;;;5.00;2.05;;;12.10;99.90;;;;;;5082885;28;20028;-89
2023/11/15 00:12:41;;;;;;;8.80;2.42;;;12.10;99.90;;;;;;5076919;28;20475;-87
2023/11/15 00:15:07;;;;;;;6.13;2.17;;;12.10;99.90;;;;;;5077465;28;20016;-88
2023/11/15 00:17:36;;;;;;;7.97;2.17;;;12.00;99.90;;;;;;5077098;28;20024;-89
2023/11/15 00:20:05;;;;;;;6.50;1.85;;;12.00;99.90;;;;;;5076641;28;20037;-88
2023/11/15 00:22:33;;;;;;;4.38;1.70;;;12.00;99.90;;;;;;5077233;28;20031;-89
2023/11/15 00:24:59;;;;;;;3.92;1.80;;;12.00;99.90;;;;;;5076746;28;20024;-88
2023/11/15 00:27:35;;;;;;;6.88;2.15;;;12.00;99.90;;;;;;5076656;28;20028;-89
2023/11/15 00:30:05;;;;;;;8.02;2.20;;;12.00;99.90;;;;;;5076248;28;20028;-88
2023/11/15 00:32:40;;;;;;;4.18;1.55;;;12.00;99.90;;;;;;5059989;28;20075;-89
2023/11/15 00:35:06;;;;;;;3.55;1.50;;;12.00;99.90;;;;;;5076576;28;20375;-89
2023/11/15 00:37:32;;;;;;;4.75;1.50;;;12.00;99.90;;;;;;5076333;28;20029;-89
2023/11/15 00:40:00;;;;;;;5.35;2.03;;;12.00;99.90;;;;;;5059896;28;20033;-89
2023/11/15 00:42:30;;;;;;;5.78;1.83;;;12.00;99.90;;;;;;5059891;28;20064;-89
2023/11/15 00:44:59;;;;;;;4.53;1.83;;;12.00;99.90;;;;;;5059538;28;20036;-89
2023/11/15 00:47:28;;;;;;;3.45;1.90;;;12.00;99.90;;;;;;5059952;28;20035;-88
2023/11/15 00:49:54;;;;;;;4.13;1.90;;;12.00;99.90;;;;;;5076299;28;20036;-88
2023/11/15 00:52:25;;;;;;;5.60;2.40;;;12.00;99.90;;;;;;5076264;28;20017;-87
2023/11/15 00:54:53;;;;;;;8.10;2.97;;;12.10;99.90;;;;;;5075676;28;20020;-88
2023/11/15 00:57:19;;;;;;;10.55;3.33;;;12.10;99.90;;;;;;5076212;28;20025;-88
2023/11/15 00:59:47;;;;;;;9.32;3.00;;;12.10;99.90;;;;;;5076494;28;20031;-88
2023/11/15 01:02:25;;;;;;;;;;;;;;;;;;;;;
2023/11/15 01:04:52;;;;;;;9.93;3.25;;;12.10;99.90;;;;;;5072548;28;20040;-89
2023/11/15 01:07:27;;;;;;;16.80;4.20;;;12.10;99.90;;;;;;5074746;28;20109;-88
2023/11/15 01:09:55;;;;;;;9.60;3.08;;;12.20;99.90;;;;;;5059964;28;20082;-89
2023/11/15 01:12:22;;;;;;;12.98;3.42;;;12.20;99.90;;;;;;5059381;28;20476;-89
2023/11/15 01:14:53;;;;;;;8.95;3.70;;;12.20;99.90;;;;;;5077379;28;20024;-90
2023/11/15 01:17:29;;;;;;;14.88;4.20;;;12.20;99.90;;;;;;5075950;28;20017;-91
2023/11/15 01:20:07;;;;;;;;;;;;;;;;;;;;;
2023/11/15 01:25:47;;;;;;;8.73;3.63;;;12.20;99.90;;;;;;5068525;28;20028;-89
2023/11/15 01:28:39;;;;;;;;;;;;;;;;;;;;;
2023/11/15 01:31:13;;;;;;;9.93;2.97;;;12.10;99.90;;;;;;5077294;28;20039;-90
2023/11/15 01:33:48;;;;;;;8.13;2.95;;;12.10;99.90;;;;;;5076332;28;20044;-90
2023/11/15 01:36:16;;;;;;;8.60;2.55;;;12.10;99.90;;;;;;5076340;28;20025;-89
2023/11/15 01:38:42;;;;;;;7.93;1.98;;;12.10;99.90;;;;;;5090020;28;20032;-89
2023/11/15 01:41:08;;;;;;;6.57;1.80;;;12.00;99.90;;;;;;5098213;28;20008;-90
2023/11/15 01:43:47;;;;;;;;;;;;;;;;;;;;;
2023/11/15 01:46:20;;;;;;;5.45;1.60;;;12.10;99.90;;;;;;5081949;28;20090;-89
2023/11/15 01:48:58;;;;;;;8.82;2.15;;;12.10;99.90;;;;;;5075555;28;20070;-91
2023/11/15 01:51:34;;;;;;;5.03;1.48;;;12.00;99.90;;;;;;5059190;28;20124;-90
2023/11/15 01:54:28;;;;;;;;;;;;;;;;;;;;;
2023/11/15 01:57:24;;;;;;;4.78;1.10;;;12.00;99.90;;;;;;5074952;28;20044;-90
2023/11/15 02:00:02;;;;;;;3.42;1.20;;;12.00;99.90;;;;;;5059266;28;20067;-92
2023/11/15 02:02:45;;;;;;;3.33;1.20;;;11.90;99.90;;;;;;5075790;28;20067;-92
2023/11/15 02:05:31;;;;;;;5.20;1.08;;;11.90;99.90;;;;;;5074664;28;20064;-92
2023/11/15 02:08:06;;;;;;;2.28;0.82;;;11.90;99.90;;;;;;5074577;28;20024;-90
2023/11/15 02:10:45;;;;;;;;;;;;;;;;;;;;;
2023/11/15 02:13:35;;;;;;;;;;;;;;;;;;;;;
2023/11/15 02:16:05;;;;;;;3.25;0.75;;;11.70;99.90;;;;;;5075313;28;20023;-90
2023/11/15 02:18:36;;;;;;;1.35;0.60;;;11.70;99.90;;;;;;5074981;28;20488;-89
2023/11/15 02:21:08;;;;;;;1.67;0.63;;;11.80;99.90;;;;;;5074302;28;20020;-89
2023/11/15 02:23:55;;;;;;;1.83;0.60;;;11.80;99.90;;;;;;5074382;28;20549;-89
2023/11/15 02:26:24;;;;;;;0.93;0.40;;;11.80;99.90;;;;;;5074291;28;20028;-88
2023/11/15 02:28:52;;;;;;;1.33;0.60;;;11.80;99.90;;;;;;5074219;28;20035;-89
2023/11/15 02:31:24;;;;;;;2.13;0.80;;;11.80;99.90;;;;;;5073851;28;20452;-89
2023/11/15 02:34:08;;;;;;;2.65;1.00;;;11.80;99.90;;;;;;5073907;28;20375;-88
2023/11/15 02:36:36;;;;;;;3.50;1.00;;;11.80;99.90;;;;;;5073871;28;20016;-91
2023/11/15 02:39:08;;;;;;;2.95;1.05;;;11.80;99.90;;;;;;5058162;28;20036;-89
2023/11/15 02:41:46;;;;;;;1.80;1.10;;;11.90;99.90;;;;;;5074214;28;20021;-90
2023/11/15 02:44:12;;;;;;;5.28;1.15;;;11.90;99.90;;;;;;5074866;28;20460;-90
2023/11/15 02:46:38;;;;;;;4.32;1.40;;;11.90;99.90;;;;;;5073546;28;20066;-89
2023/11/15 02:49:05;;;;;;;3.10;1.30;;;11.90;99.90;;;;;;5075031;28;20086;-91
2023/11/15 02:51:34;;;;;;;4.50;1.35;;;11.90;99.90;;;;;;5074055;28;20056;-91
2023/11/15 02:54:03;;;;;;;6.53;2.00;;;11.90;99.90;;;;;;5073455;28;20024;-89
2023/11/15 02:56:32;;;;;;;3.92;1.55;;;11.90;99.90;;;;;;5073742;28;20074;-89
2023/11/15 02:59:10;;;;;;;6.13;2.00;;;11.90;99.90;;;;;;5057497;28;20039;-90
2023/11/15 03:01:47;;;;;;;9.38;2.33;;;12.00;99.90;;;;;;5074579;28;20020;-89
2023/11/15 03:04:25;;;;;;;;;;;;;;;;;;;;;
2023/11/15 03:06:54;;;;;;;11.30;2.78;;;12.00;99.90;;;;;;5075195;28;20017;-90
2023/11/15 03:09:22;;;;;;;8.30;2.60;;;12.00;99.90;;;;;;5075044;28;20056;-89
2023/11/15 03:12:08;;;;;;;8.90;2.70;;;12.10;99.90;;;;;;5075607;28;20031;-90
2023/11/15 03:14:37;;;;;;;6.65;2.53;;;12.10;99.90;;;;;;5091148;28;20104;-90
2023/11/15 03:17:12;;;;;;;10.00;2.58;;;12.10;99.90;;;;;;5096761;28;20035;-89
2023/11/15 03:19:41;;;;;;;7.38;2.28;;;12.10;99.90;;;;;;5084366;28;20032;-89
2023/11/15 03:22:09;;;;;;;10.80;2.95;;;12.10;99.90;;;;;;5079183;28;20033;-91
2023/11/15 03:24:38;;;;;;;6.15;2.33;;;12.10;99.90;;;;;;5074174;28;20029;-91
2023/11/15 03:27:08;;;;;;;5.63;2.35;;;12.10;99.90;;;;;;5074121;28;20035;-90
2023/11/15 03:29:37;;;;;;;10.73;3.08;;;12.10;99.90;;;;;;5075523;28;20028;-89
2023/11/15 03:32:06;;;;;;;10.38;2.67;;;12.10;99.90;;;;;;5076361;28;20523;-91
2023/11/15 03:34:34;;;;;;;8.60;3.08;;;12.10;99.90;;;;;;5078954;28;20028;-91
2023/11/15 03:37:06;;;;;;;7.38;2.60;;;12.10;99.90;;;;;;5078015;28;20017;-89
2023/11/15 03:39:37;;;;;;;9.77;2.70;;;12.20;99.90;;;;;;5078691;28;20115;-89
2023/11/15 03:42:04;;;;;;;9.93;2.50;;;12.10;99.90;;;;;;5077428;28;20025;-89
2023/11/15 03:44:32;;;;;;;9.85;2.72;;;12.10;99.90;;;;;;5077547;28;20464;-89
2023/11/15 03:47:02;;;;;;;7.88;2.13;;;12.10;99.90;;;;;;5077452;28;20048;-91
2023/11/15 03:49:28;;;;;;;9.98;2.47;;;12.20;99.90;;;;;;5077937;28;20491;-89
2023/11/15 03:52:03;;;;;;;12.75;2.95;;;12.10;99.90;;;;;;5077320;28;20021;-91
2023/11/15 03:54:30;;;;;;;11.02;2.88;;;12.20;99.90;;;;;;5076919;28;20025;-90
2023/11/15 03:57:04;;;;;;;9.20;2.28;;;12.10;99.90;;;;;;5076461;28;20045;-89
2023/11/15 03:59:53;;;;;;;9.88;2.70;;;12.10;99.90;;;;;;5061563;28;20123;-89
2023/11/15 04:02:22;;;;;;;8.95;2.90;;;12.10;99.90;;;;;;5077255;28;20108;-89
2023/11/15 04:04:47;;;;;;;7.90;2.58;;;12.10;99.90;;;;;;5076866;28;20112;-89
2023/11/15 04:07:25;;;;;;;8.57;2.45;;;12.10;99.90;;;;;;5076939;28;20052;-89
2023/11/15 04:09:50;;;;;;;7.03;2.22;;;12.10;99.90;;;;;;5076875;28;20032;-90
2023/11/15 04:12:31;;;;;;;7.25;2.13;;;12.10;99.90;;;;;;5076905;28;20082;-89
2023/11/15 04:15:08;;;;;;;8.68;2.30;;;12.10;99.90;;;;;;5076415;28;20479;-89
2023/11/15 04:17:44;;;;;;;9.00;2.90;;;12.10;99.90;;;;;;5077816;28;20016;-90
2023/11/15 04:20:22;;;;;;;8.75;2.25;;;12.10;99.90;;;;;;5077307;28;20032;-89
2023/11/15 04:22:50;;;;;;;8.10;2.45;;;12.10;99.90;;;;;;5078899;28;20024;-90
2023/11/15 04:25:19;;;;;;;7.80;2.22;;;12.10;99.90;;;;;;5078424;28;20024;-90
2023/11/15 04:27:50;;;;;;;11.18;2.25;;;12.10;99.90;;;;;;5078035;28;20059;-89
2023/11/15 04:30:16;;;;;;;6.47;1.85;;;12.10;99.90;;;;;;5061142;28;20066;-89
2023/11/15 04:32:52;;;;;;;;;;;;;;;;;;;;;
2023/11/15 04:35:18;;;;;;;8.43;2.20;;;12.10;99.90;;;;;;5077654;28;20033;-90
2023/11/15 04:37:50;;;;;;;7.18;2.40;;;12.10;99.90;;;;;;5077365;28;20066;-90
2023/11/15 04:40:18;;;;;;;8.88;2.20;;;12.10;99.90;;;;;;5060600;28;20036;-89
2023/11/15 04:42:53;;;;;;;9.90;2.53;;;12.10;99.90;;;;;;5076570;28;20028;-90
2023/11/15 04:45:19;;;;;;;9.38;2.78;;;12.10;99.90;;;;;;5076044;28;20464;-89
2023/11/15 04:47:46;;;;;;;8.02;2.20;;;12.10;99.90;;;;;;5085383;28;20001;-91
2023/11/15 04:50:14;;;;;;;8.13;2.13;;;12.10;99.90;;;;;;5089152;28;20032;-90
2023/11/15 04:52:40;;;;;;;7.60;2.42;;;12.10;99.90;;;;;;5089984;28;20028;-90
2023/11/15 04:55:10;;;;;;;8.70;2.28;;;12.10;99.90;;;;;;5090522;28;20472;-88
2023/11/15 04:57:39;;;;;;;12.30;2.88;;;12.10;99.90;;;;;;5090738;28;20017;-91
2023/11/15 05:00:10;;;;;;;8.63;2.42;;;12.10;99.90;;;;;;5083769;28;20055;-89
2023/11/15 05:02:36;;;;;;;8.13;2.35;;;12.10;99.90;;;;;;5076830;28;20070;-89
2023/11/15 05:05:04;;;;;;;8.63;2.33;;;12.10;99.90;;;;;;5076972;28;20055;-88
2023/11/15 05:07:36;;;;;;;10.18;3.08;;;12.10;99.90;;;;;;5076118;28;20027;-89
2023/11/15 05:10:04;;;;;;;8.50;2.67;;;12.10;99.90;;;;;;5060287;28;20032;-89
2023/11/15 05:12:41;;;;;;;10.25;2.80;;;12.10;99.90;;;;;;5077433;28;20028;-90
2023/11/15 05:15:14;;;;;;;9.05;2.42;;;12.10;99.90;;;;;;5076072;28;20032;-88
2023/11/15 05:17:40;;;;;;;13.55;2.90;;;12.00;99.90;;;;;;5059215;28;20541;-89
2023/11/15 05:20:14;;;;;;;8.57;2.42;;;12.10;99.90;;;;;;5075829;28;20040;-88
2023/11/15 05:22:55;;;;;;;6.47;2.15;;;12.00;99.90;;;;;;5058646;28;20116;-89
2023/11/15 05:25:24;;;;;;;8.63;2.40;;;12.00;99.90;;;;;;5058958;28;20464;-89
2023/11/15 05:27:53;;;;;;;7.95;2.45;;;12.10;99.90;;;;;;5075253;28;20078;-91
2023/11/15 05:30:22;;;;;;;8.40;2.45;;;12.00;99.90;;;;;;5075438;28;20123;-89
2023/11/15 05:32:47;;;;;;;10.80;2.72;;;12.00;99.90;;;;;;5075173;28;20426;-90
2023/11/15 05:35:16;;;;;;;10.15;3.05;;;12.10;99.90;;;;;;5074768;28;20021;-89
2023/11/15 05:37:45;;;;;;;11.63;2.95;;;12.10;99.90;;;;;;5058502;28;20159;-88
2023/11/15 05:40:22;;;;;;;6.47;2.00;;;12.10;99.90;;;;;;5075635;28;20086;-89
2023/11/15 05:42:54;;;;;;;9.63;2.55;;;12.10;99.90;;;;;;5075461;28;20036;-88
2023/11/15 05:45:22;;;;;;;10.52;2.25;;;12.10;99.90;;;;;;5058783;28;20112;-89
2023/11/15 05:47:48;;;;;;;7.20;2.17;;;12.00;99.90;;;;;;5075027;28;20028;-88
2023/11/15 05:50:16;;;;;;;8.80;2.33;;;12.10;99.90;;;;;;5074603;28;20049;-88
2023/11/15 05:52:52;;;;;;;11.05;2.80;;;12.10;99.90;;;;;;5075195;28;20029;-89
2023/11/15 05:55:20;;;;;;;9.65;2.35;;;12.10;99.90;;;;;;5074429;28;20083;-91
2023/11/15 05:58:04;;;;;;;9.57;2.30;;;12.10;99.90;;;;;;5075504;28;20033;-89
2023/11/15 06:00:31;;;;;;;11.20;3.15;;;12.10;99.90;;;;;;5075084;28;20117;-88
2023/11/15 06:03:03;;;;;;;10.48;2.75;;;12.10;99.90;;;;;;5076235;28;20526;-88
2023/11/15 06:05:31;;;;;;;10.98;2.70;;;12.10;99.90;;;;;;5075415;28;20028;-88
2023/11/15 06:08:09;;;;;;;10.95;2.80;;;12.10;99.90;;;;;;5058627;28;20153;-91
2023/11/15 06:10:34;;;;;;;9.05;2.63;;;12.10;99.90;;;;;;5076024;28;20028;-89
2023/11/15 06:13:09;;;;;;;10.85;2.70;;;12.10;99.90;;;;;;5074732;28;20045;-89
2023/11/15 06:15:40;;;;;;;9.35;2.17;;;12.20;99.90;;;;;;5075095;28;20025;-91
2023/11/15 06:18:06;;;;;;;9.55;2.65;;;12.20;99.90;;;;;;5059229;28;20025;-89
2023/11/15 06:20:34;;;;;;;12.30;2.92;;;12.20;99.90;;;;;;5076882;28;20111;-89
2023/11/15 06:23:05;;;;;;;12.32;2.92;;;12.20;99.90;;;;;;5095485;28;20015;-91
2023/11/15 06:25:36;;;;;;;8.70;2.28;;;12.20;99.90;;;;;;5080160;28;20028;-89
2023/11/15 06:28:04;;;;;;;7.32;2.38;;;12.20;99.90;;;;;;5096930;28;20020;-90
2023/11/15 06:30:33;;;;;;;9.30;2.22;;;12.10;99.90;;;;;;5075268;28;20086;-87
2023/11/15 06:33:02;;;;;;;6.50;1.98;;;12.20;99.90;;;;;;5083505;28;20029;-89
2023/11/15 06:35:27;;;;;;;8.77;2.50;;;12.20;99.90;;;;;;5064343;28;20020;-88
2023/11/15 06:37:54;;;;;;;9.55;2.80;;;12.20;99.90;;;;;;5058750;28;20022;-88
2023/11/15 06:40:22;;;;;;;10.95;2.80;;;12.20;99.90;;;;;;5074397;28;20028;-90
2023/11/15 06:42:51;;;;;;;13.38;3.03;;;12.10;99.90;;;;;;5057710;28;20035;-88
2023/11/15 06:45:17;;;;;;;7.90;2.70;;;12.10;99.90;;;;;;5074431;28;20130;-89
2023/11/15 06:47:45;;;;;;;9.48;3.25;;;12.10;99.90;;;;;;5075522;28;20050;-89
2023/11/15 06:50:28;;;;;;;8.73;2.35;;;12.10;99.90;;;;;;5074262;28;20024;-88
2023/11/15 06:52:57;;;;;;;9.50;3.08;;;12.10;99.90;;;;;;5058011;28;20445;-87
2023/11/15 06:55:26;;;;;;;7.85;2.80;;;12.10;99.90;;;;;;5074697;28;20076;-87
2023/11/15 06:57:55;;;;;;;9.60;2.58;;;12.10;99.90;;;;;;5073845;28;20033;-89
2023/11/15 07:00:21;;;;;;;9.25;2.50;;;12.10;99.90;;;;;;5073521;28;20020;-89
2023/11/15 07:02:47;;;;;;;10.27;2.80;;;12.00;99.90;;;;;;5073605;28;20047;-88
2023/11/15 07:05:13;;;;;;;9.50;2.88;;;12.10;99.90;;;;;;5074450;28;20460;-91
2023/11/15 07:07:44;;;;;;;10.60;3.00;;;12.10;99.90;;;;;;5073330;28;20027;-89
2023/11/15 07:10:12;;;;;;;;;;;12.10;99.90;;;;;;5074779;28;20032;-88
2023/11/15 07:12:40;;;;;;;9.77;2.83;;;12.10;99.90;;;;;;5073878;28;19905;-88
2023/11/15 07:15:15;;;;;;;14.00;3.42;;;12.00;99.90;;;;;;5073513;28;20029;-88
2023/11/15 07:17:41;;;;;;;6.72;2.70;;;12.00;99.90;;;;;;5073939;28;20017;-89
2023/11/15 07:20:09;;;;;;;8.70;2.97;;;12.00;99.90;;;;;;5074933;28;20039;-90
2023/11/15 07:22:44;;;;;;;8.52;3.35;;;12.10;99.90;;;;;;5073869;28;20107;-88
2023/11/15 07:25:25;;;;;;;9.23;3.45;;;12.00;99.90;;;;;;5073744;28;20399;-88
2023/11/15 07:27:55;;;;;;;10.13;2.88;;;12.00;99.90;;;;;;5074661;28;20055;-90
2023/11/15 07:30:22;;;;;;;12.65;3.70;;;12.00;99.90;;;;;;5057743;28;20036;-89
2023/11/15 07:33:09;;;;;;;8.48;3.40;;;12.00;99.90;;;;;;5073988;28;20016;-88
2023/11/15 07:35:52;;;;;;;10.02;3.47;;;12.00;99.90;;;;;;5074095;28;20033;-89
2023/11/15 07:38:47;;;;;;;10.02;2.97;;;12.10;99.90;;;;;;5074373;28;20024;-88
2023/11/15 07:41:13;;;;;;;10.52;3.10;;;12.00;99.90;;;;;;5058127;28;20032;-87
2023/11/15 07:43:43;;;;;;;10.02;3.50;;;12.00;99.90;;;;;;5073111;28;20020;-88
2023/11/15 07:46:16;;;;;;;10.07;3.33;;;12.10;99.90;;;;;;5074764;28;20024;-89
2023/11/15 07:48:42;;;;;;;10.18;3.30;;;12.10;99.90;;;;;;5057276;28;20037;-88
2023/11/15 07:51:08;;;;;;;12.85;3.53;;;12.10;99.90;;;;;;5073965;28;20051;-87
2023/11/15 07:53:34;;;;;;;7.22;2.60;;;12.20;99.90;;;;;;5073821;28;20028;-90
2023/11/15 07:56:02;;;;;;;12.23;3.38;;;12.20;99.90;;;;;;5074351;28;20044;-88
2023/11/15 07:58:30;;;;;;;8.65;2.45;;;12.20;99.90;;;;;;5074402;28;20399;-90
2023/11/15 08:01:01;;;;;;;8.88;3.00;;;12.20;99.90;;;;;;5075883;28;20013;-89
2023/11/15 08:03:50;;;;;;;9.30;3.45;;;12.20;99.90;;;;;;5096815;28;20038;-90
2023/11/15 08:06:18;;;;;;;10.27;3.53;;;12.20;99.90;;;;;;5076365;28;20036;-88
2023/11/15 08:08:44;;;;;;;6.88;2.50;;;12.20;99.90;;;;;;5082121;28;20052;-88
2023/11/15 08:11:24;;;;;;;10.02;2.75;;;12.20;99.90;;;;;;5075793;28;20047;-89
2023/11/15 08:14:08;;;;;;;12.48;3.20;;;12.20;99.90;;;;;;5057606;28;20036;-90
2023/11/15 08:16:50;;;;;;;9.13;2.97;;;12.20;99.90;;;;;;5073251;28;20031;-89
2023/11/15 08:19:15;;;;;;;20.02;4.60;;;12.20;99.90;;;;;;5077135;28;20032;-88
2023/11/15 08:21:42;;;;;;;11.23;4.20;;;12.20;99.90;;;;;;5077096;28;20357;-87
2023/11/15 08:24:20;;;;;;;12.25;3.25;;;12.20;99.90;;;;;;5077577;28;20020;-89
2023/11/15 08:26:47;;;;;;;15.38;3.50;;;12.20;99.90;;;;;;5060772;28;20028;-88
2023/11/15 08:29:16;;;;;;;12.60;2.95;;;12.20;99.90;;;;;;5076447;28;20040;-88
2023/11/15 08:31:44;;;;;;;10.80;3.03;;;12.20;99.90;;;;;;5076612;28;20033;-88
2023/11/15 08:34:13;;;;;;;10.82;3.55;;;12.20;99.90;;;;;;5076616;28;20440;-88
2023/11/15 08:36:49;;;;;;;10.68;3.03;;;12.20;99.90;;;;;;5059709;28;20082;-90
2023/11/15 08:39:17;;;;;;;12.45;3.60;;;12.30;99.90;;;;;;5077601;28;20115;-88
2023/11/15 08:41:45;;;;;;;7.60;2.67;;;12.20;99.90;;;;;;5076316;28;20059;-89
2023/11/15 08:44:14;;;;;;;6.97;2.67;;;12.30;99.90;;;;;;5076374;28;20024;-89
2023/11/15 08:46:43;;;;;;;9.77;2.83;;;12.30;99.90;;;;;;5077393;28;20092;-90
2023/11/15 08:49:12;;;;;;;8.13;2.75;;;12.20;99.90;;;;;;5076594;28;20024;-90
2023/11/15 08:51:40;;;;;;;12.32;3.13;;;12.20;99.90;;;;;;5076461;28;20029;-89
2023/11/15 08:54:09;;;;;;;11.90;3.30;;;12.20;99.90;;;;;;5076572;28;20020;-91
2023/11/15 10:03:23;;;;;;;8.18;1.90;;;12.50;99.90;;;;;;5104054;23;20058;31
2023/11/15 10:05:58;;;;;;;9.95;2.38;;;12.50;99.90;;;;;;4907738;29;20116;-90
2023/11/15 10:08:27;;;;;;;9.25;2.78;;;12.40;99.90;;;;;;4903104;29;20070;-90
2023/11/15 10:11:08;;;;;;;8.30;3.03;;;12.40;99.90;;;;;;4919320;29;20110;-90
2023/11/15 10:13:39;;;;;;;6.97;1.98;;;12.50;99.90;;;;;;4902356;29;20020;-90
2023/11/15 10:16:24;;;;;;;7.35;2.45;;;12.40;99.90;;;;;;4902726;29;20055;-90
2023/11/15 10:18:51;;;;;;;7.28;2.00;;;12.50;99.90;;;;;;4905672;29;20146;-90
2023/11/15 10:21:20;;;;;;;11.77;2.60;;;12.50;99.90;;;;;;4919697;29;20051;-89
2023/11/15 10:23:46;;;;;;;11.57;2.58;;;12.50;99.90;;;;;;4902653;29;20063;-91
2023/11/15 10:26:12;;;;;;;7.75;2.10;;;12.50;99.90;;;;;;4902624;29;20463;-92
2023/11/15 10:28:43;;;;;;;9.98;2.40;;;12.50;99.90;;;;;;4905048;29;20028;-90
2023/11/15 10:31:18;;;;;;;;;;;12.50;99.90;;;;;;4903120;29;20480;-90
2023/11/15 10:33:55;;;;;;;10.85;2.30;;;12.60;99.90;;;;;;4902317;29;19961;-91
2023/11/15 10:36:24;;;;;;;7.90;2.13;;;12.60;99.90;;;;;;4903787;29;20056;-89
2023/11/15 10:38:55;;;;;;;7.72;2.15;;;12.60;99.90;;;;;;4902684;29;20032;-91
2023/11/15 10:41:25;;;;;;;6.95;2.33;;;12.70;99.90;;;;;;4902200;29;20036;-90
2023/11/15 10:43:55;;;;;;;8.43;2.00;;;12.70;99.90;;;;;;4902594;29;20120;-90
2023/11/15 10:46:30;;;;;;;10.05;2.55;;;12.70;99.90;;;;;;4902239;29;20115;-90
2023/11/15 10:48:59;;;;;;;10.27;2.67;;;12.70;99.90;;;;;;4901574;29;20029;-91
2023/11/15 10:51:40;;;;;;;8.85;2.50;;;12.80;99.90;;;;;;4901972;29;20024;-90
2023/11/15 10:54:09;;;;;;;11.02;2.65;;;12.80;99.90;;;;;;4902202;29;20035;-92
2023/11/15 10:56:37;;;;;;;12.40;2.88;;;12.90;99.90;;;;;;4901599;29;20040;-92
2023/11/15 10:59:10;;;;;;;6.72;2.20;;;12.90;99.90;;;;;;4901447;29;20028;-91
2023/11/15 11:01:37;;;;;;;9.93;2.45;;;12.90;99.90;;;;;;4901831;29;20472;-90
2023/11/15 11:04:10;;;;;;;10.60;2.28;;;13.00;99.90;;;;;;4897129;29;20477;-90
2023/11/15 11:06:50;;;;;;;11.68;2.30;;;13.00;99.90;;;;;;4907059;29;20503;-90
2023/11/15 11:09:31;;;;;;;5.20;1.85;;;13.10;99.90;;;;;;4898452;29;20440;-91
2023/11/15 11:12:05;;;;;;;;;;;13.10;99.90;;;;;;4914378;29;20028;-89
2023/11/15 11:14:32;;;;;;;6.07;1.95;;;13.10;99.90;;;;;;4898424;29;19958;-89
2023/11/15 11:16:59;;;;;;;7.90;1.92;;;13.10;99.90;;;;;;4882461;29;20044;-89
2023/11/15 11:19:26;;;;;;;6.97;2.08;;;13.10;99.90;;;;;;4895345;29;20507;-88
2023/11/15 11:22:02;;;;;;;7.55;1.92;;;13.10;99.90;;;;;;4882064;29;20108;-90
2023/11/15 11:24:36;;;;;;;8.80;2.10;;;13.10;99.90;;;;;;4914328;29;20439;-92
2023/11/15 11:27:14;;;;;;;8.52;2.10;;;13.10;99.90;;;;;;4899727;29;20024;-90
2023/11/15 11:29:51;;;;;;;8.48;2.13;;;13.10;99.90;;;;;;4914752;29;20032;-91
2023/11/15 11:32:26;;;;;;;13.55;2.90;;;13.10;99.90;;;;;;4905762;29;20021;-91
2023/11/15 11:35:07;;;;;;;6.90;1.80;;;13.10;99.90;;;;;;4901715;29;20032;-91
2023/11/15 11:37:53;;;;;;;10.95;1.92;;;13.10;99.90;;;;;;4895021;29;20035;-91
2023/11/15 11:40:23;;;;;;;5.63;1.60;;;13.20;99.90;;;;;;4897948;29;20037;-89
2023/11/15 11:42:53;;;;;;;5.20;1.75;;;13.20;99.90;;;;;;4887360;29;20025;-91
2023/11/15 11:45:23;;;;;;;6.82;1.98;;;13.20;99.90;;;;;;4858467;29;20481;-89
2023/11/15 11:47:52;;;;;;;6.40;1.92;;;13.20;99.90;;;;;;4890281;29;20036;-91
2023/11/15 11:50:28;;;;;;;10.15;1.88;;;13.30;99.90;;;;;;4895200;29;20032;-91
2023/11/15 11:53:00;;;;;;;4.60;1.55;;;13.30;99.90;;;;;;4886734;29;20033;-90
2023/11/15 11:55:32;;;;;;;7.90;1.50;;;13.30;99.90;;;;;;4895727;29;20096;-93
2023/11/15 11:58:08;;;;;;;7.13;1.88;;;13.30;99.90;;;;;;4903441;29;20024;-88
2023/11/15 12:00:37;;;;;;;8.02;1.70;;;13.40;99.90;;;;;;4890848;29;20128;-90
2023/11/15 12:03:21;;;;;;;8.65;1.90;;;13.30;99.90;;;;;;4909695;29;20032;-90
2023/11/15 12:05:47;;;;;;;6.72;1.90;;;13.30;99.90;;;;;;4894757;29;20140;-90
2023/11/15 12:08:24;;;;;;;;;;;;;;;;;;;;;
2023/11/15 12:10:53;;;;;;;5.88;1.80;;;13.20;99.90;;;;;;4909767;29;20040;-90
2023/11/15 12:13:22;;;;;;;6.05;1.90;;;13.20;99.90;;;;;;4900998;29;20041;-92
2023/11/15 12:15:48;;;;;;;10.52;2.47;;;13.10;99.90;;;;;;4904634;29;20016;-91
2023/11/15 12:18:17;;;;;;;7.13;2.17;;;13.10;99.90;;;;;;4903028;29;20040;-89
2023/11/15 12:20:45;;;;;;;7.03;2.08;;;13.00;99.90;;;;;;4904828;29;20039;-89
2023/11/15 12:23:20;;;;;;;5.97;1.88;;;13.00;99.90;;;;;;4910256;29;20151;-90
2023/11/15 12:25:52;;;;;;;6.95;1.88;;;13.00;99.90;;;;;;4885958;29;20060;-90
2023/11/15 12:28:31;;;;;;;6.30;1.58;;;12.90;99.90;;;;;;4905003;29;20131;-90
2023/11/15 12:30:58;;;;;;;8.13;1.85;;;12.90;99.90;;;;;;4904661;29;20468;-89
2023/11/15 12:33:36;;;;;;;;;;;;;;;;;;;;;
2023/11/15 12:36:07;;;;;;;6.78;2.22;;;12.80;99.90;;;;;;4905821;29;20032;-89
2023/11/15 12:38:57;;;;;;;7.22;1.98;;;12.80;99.90;;;;;;4894005;29;20043;-89
2023/11/15 12:41:28;;;;;;;5.65;1.60;;;12.80;99.90;;;;;;4921094;29;20029;-88
2023/11/15 12:44:11;;;;;;;5.40;1.77;;;12.80;99.90;;;;;;4904875;29;20036;-90
2023/11/15 12:46:40;;;;;;;5.25;1.63;;;12.70;99.90;;;;;;4905944;29;20036;-90
2023/11/15 12:49:17;;;;;;;5.88;1.67;;;12.80;99.90;;;;;;4917461;29;20388;-89
2023/11/15 12:51:46;;;;;;;5.47;1.45;;;12.70;99.90;;;;;;4909233;29;20035;-90
2023/11/15 12:54:13;;;;;;;5.85;1.50;;;12.70;99.90;;;;;;4904124;29;20017;-89
2023/11/15 12:56:44;;;;;;;3.75;1.10;;;12.60;99.90;;;;;;4904093;29;20028;-89
2023/11/15 12:59:17;;;;;;;5.13;1.25;;;12.60;99.90;;;;;;4904539;29;20028;-89
2023/11/15 13:01:44;;;;;;;6.93;1.65;;;12.50;99.90;;;;;;4904374;29;20025;-89
2023/11/15 13:04:12;;;;;;;4.88;1.33;;;12.50;99.90;;;;;;4903686;29;20056;-90
2023/11/15 13:06:38;;;;;;;3.13;1.27;;;12.40;99.90;;;;;;4920424;29;20031;-89
2023/11/15 13:09:07;;;;;;;5.03;1.15;;;12.30;99.90;;;;;;4913012;29;20043;-90
2023/11/15 13:11:45;;;;;;;5.18;1.17;;;12.30;99.90;;;;;;4939628;29;20028;-89
2023/11/15 13:14:22;;;;;;;3.20;1.08;;;12.30;99.90;;;;;;4939610;29;20032;-89
2023/11/15 13:16:55;;;;;;;3.67;1.08;;;12.30;99.90;;;;;;4930485;29;20035;-88
2023/11/15 13:19:23;;;;;;;5.15;1.10;;;12.30;99.90;;;;;;4905787;29;20032;-90
2023/11/15 13:21:52;;;;;;;5.65;1.20;;;12.30;99.90;;;;;;4901761;29;20476;-89
2023/11/15 13:24:18;;;;;;;6.63;1.48;;;12.30;99.90;;;;;;4915026;29;20052;-88
2023/11/15 13:26:49;;;;;;;4.35;1.27;;;12.40;99.90;;;;;;4919515;29;20035;-89
2023/11/15 13:29:19;;;;;;;7.45;1.35;;;12.40;99.90;;;;;;4903572;29;20040;-90
2023/11/15 13:31:46;;;;;;;7.47;1.90;;;12.50;99.90;;;;;;4918820;29;20064;-89
2023/11/15 13:34:19;;;;;;;4.97;1.65;;;12.40;99.90;;;;;;4918345;29;20016;-89
2023/11/15 13:36:52;;;;;;;6.75;1.40;;;12.40;99.90;;;;;;4903561;29;20436;-89
2023/11/15 13:39:23;;;;;;;7.40;1.50;;;12.50;99.90;;;;;;4918722;29;20039;-89
2023/11/15 13:41:57;;;;;;;7.03;1.70;;;12.50;99.90;;;;;;4918491;29;20079;-91
2023/11/15 13:44:23;;;;;;;5.47;1.38;;;12.50;99.90;;;;;;4903557;29;20039;-90
2023/11/15 13:46:59;;;;;;;4.97;1.13;;;12.40;99.90;;;;;;4918679;29;20144;-90
2023/11/15 13:49:25;;;;;;;5.32;1.30;;;12.50;99.90;;;;;;4903226;29;20032;-92
2023/11/15 13:51:54;;;;;;;8.18;1.52;;;12.50;99.90;;;;;;4918450;29;20495;-90
2023/11/15 13:54:22;;;;;;;5.55;1.33;;;12.50;99.90;;;;;;4918779;29;20091;-91
2023/11/15 13:56:50;;;;;;;7.88;1.73;;;12.50;99.90;;;;;;4918526;29;20026;-90
2023/11/15 13:59:16;;;;;;;4.18;1.40;;;12.50;99.90;;;;;;4919059;29;20136;-91
2023/11/15 14:01:44;;;;;;;5.63;1.73;;;12.40;99.90;;;;;;4920193;29;20480;-89
2023/11/15 14:04:10;;;;;;;6.93;1.85;;;12.40;99.90;;;;;;4903001;29;20111;-90
2023/11/15 14:06:46;;;;;;;5.13;1.45;;;12.40;99.90;;;;;;4918863;29;20032;-89
2023/11/15 14:09:15;;;;;;;5.90;1.38;;;12.50;99.90;;;;;;4915404;29;20032;-88
2023/11/15 14:11:46;;;;;;;5.90;1.30;;;12.50;99.90;;;;;;4919331;29;20024;-88
2023/11/15 14:14:24;;;;;;;;;;;;;;;;;;;;;
2023/11/15 14:17:09;;;;;;;;;;;;;;;;;;;;;
2023/11/15 14:19:44;;;;;;;6.43;1.70;;;12.60;99.90;;;;;;4919682;29;20379;-90
2023/11/15 14:22:15;;;;;;;5.97;1.55;;;12.60;99.90;;;;;;4918808;29;20028;-88
2023/11/15 14:24:44;;;;;;;7.50;1.83;;;12.60;99.90;;;;;;4897667;29;20495;-89
2023/11/15 14:27:15;;;;;;;8.23;1.95;;;12.60;99.90;;;;;;4902911;29;20044;-90
2023/11/15 14:29:55;;;;;;;;;;;12.60;99.90;;;;;;4900634;29;20096;-88
2023/11/15 14:32:23;;;;;;;6.50;1.70;;;12.60;99.90;;;;;;4920478;29;19921;-87